CCA115 VGHS-ZULS
Flight info
| Callsign | CCA115 |
|---|---|
| Flight time | N/A |
| Altitude | 24000 |
| Route | TEGAK1 TEGAK W3 NILIT/N0458F380 W3 SDP DCT BGD/K0841S1130 DCT RKZ |
| Aircraft | A319/M-SDE3FGHIRWY/LB1 |
Departure
| Time | N/A |
|---|---|
| Airport | Hazrat Shahjalal International Airport (VGHS) |
Arrival
| Time | 2026-04-22 20:48 |
|---|---|
| Airport | Lhasa Gonggar International Airport (ZULS) |
| Time | Latitude | Longitude | Altitude | Speed | Heading |
|---|---|---|---|---|---|
| 2026-04-22 19:45 | 24.42563 | 89.56914 | 37676 ft | 425 kts | 324° |
| 2026-04-22 19:46 | 24.47962 | 89.54306 | 37691 ft | 422 kts | 324° |
| 2026-04-22 19:46 | 24.53326 | 89.51697 | 37689 ft | 422 kts | 323° |
| 2026-04-22 19:47 | 24.58687 | 89.49073 | 37690 ft | 421 kts | 323° |
| 2026-04-22 19:47 | 24.64041 | 89.46444 | 37686 ft | 422 kts | 323° |
| 2026-04-22 19:48 | 24.69403 | 89.43817 | 37690 ft | 422 kts | 323° |
| 2026-04-22 19:48 | 24.74757 | 89.41194 | 37711 ft | 421 kts | 323° |
| 2026-04-22 19:49 | 24.80099 | 89.38576 | 37701 ft | 420 kts | 323° |
| 2026-04-22 19:49 | 24.85428 | 89.35963 | 37698 ft | 419 kts | 323° |
| 2026-04-22 19:50 | 24.90726 | 89.33361 | 37696 ft | 419 kts | 323° |
| 2026-04-22 19:50 | 24.96055 | 89.30750 | 37694 ft | 419 kts | 323° |
| 2026-04-22 19:51 | 25.01384 | 89.28138 | 37694 ft | 419 kts | 323° |
| 2026-04-22 19:51 | 25.06697 | 89.25522 | 37718 ft | 418 kts | 323° |
| 2026-04-22 19:52 | 25.12002 | 89.22904 | 37719 ft | 417 kts | 323° |
| 2026-04-22 19:52 | 25.17304 | 89.20293 | 37709 ft | 416 kts | 323° |
| 2026-04-22 19:53 | 25.22590 | 89.17689 | 37705 ft | 416 kts | 323° |
| 2026-04-22 19:53 | 25.27832 | 89.15099 | 37701 ft | 415 kts | 323° |
| 2026-04-22 19:54 | 25.33108 | 89.12481 | 37698 ft | 416 kts | 323° |
| 2026-04-22 19:54 | 25.38387 | 89.09862 | 37698 ft | 415 kts | 323° |
| 2026-04-22 19:55 | 25.43661 | 89.07256 | 37691 ft | 415 kts | 323° |
| 2026-04-22 19:55 | 25.48938 | 89.04640 | 37689 ft | 415 kts | 323° |
| 2026-04-22 19:56 | 25.54207 | 89.02017 | 37692 ft | 415 kts | 323° |
| 2026-04-22 19:56 | 25.59486 | 88.99387 | 37689 ft | 415 kts | 323° |
| 2026-04-22 19:57 | 25.64762 | 88.96765 | 37726 ft | 415 kts | 323° |
| 2026-04-22 19:57 | 25.69997 | 88.94162 | 37713 ft | 414 kts | 323° |
| 2026-04-22 19:58 | 25.75254 | 88.91543 | 37703 ft | 413 kts | 323° |
| 2026-04-22 19:58 | 25.80232 | 88.88577 | 37698 ft | 404 kts | 318° |
| 2026-04-22 20:00 | 25.97389 | 88.77815 | 37713 ft | 403 kts | 318° |
| 2026-04-22 20:01 | 26.02281 | 88.74747 | 37713 ft | 403 kts | 318° |
| 2026-04-22 20:01 | 26.07168 | 88.71677 | 37707 ft | 403 kts | 318° |
| 2026-04-22 20:02 | 26.12041 | 88.68604 | 37702 ft | 402 kts | 318° |
| 2026-04-22 20:02 | 26.16890 | 88.65548 | 37701 ft | 402 kts | 318° |
| 2026-04-22 20:03 | 26.21764 | 88.62471 | 37701 ft | 402 kts | 318° |
| 2026-04-22 20:03 | 26.26641 | 88.59383 | 37719 ft | 402 kts | 318° |
| 2026-04-22 20:04 | 26.31496 | 88.56315 | 37702 ft | 400 kts | 318° |
| 2026-04-22 20:04 | 26.36354 | 88.53249 | 37701 ft | 401 kts | 318° |
| 2026-04-22 20:05 | 26.41180 | 88.50195 | 37710 ft | 401 kts | 318° |
| 2026-04-22 20:05 | 26.46042 | 88.47108 | 37704 ft | 401 kts | 318° |
| 2026-04-22 20:06 | 26.50890 | 88.44024 | 37708 ft | 401 kts | 318° |
| 2026-04-22 20:06 | 26.55751 | 88.40933 | 37749 ft | 402 kts | 318° |
| 2026-04-22 20:07 | 26.60589 | 88.37859 | 37733 ft | 402 kts | 319° |
| 2026-04-22 20:07 | 26.65522 | 88.34877 | 37718 ft | 413 kts | 326° |
| 2026-04-22 20:07 | 26.68355 | 88.33996 | 37713 ft | 434 kts | 339° |
| 2026-04-22 20:08 | 26.71447 | 88.33855 | 37705 ft | 458 kts | 352° |
| 2026-04-22 20:08 | 26.74655 | 88.34577 | 37785 ft | 480 kts | 5° |
| 2026-04-22 20:08 | 26.77859 | 88.35696 | 37779 ft | 481 kts | 5° |
| 2026-04-22 20:09 | 26.84268 | 88.37946 | 37769 ft | 483 kts | 5° |
| 2026-04-22 20:09 | 26.90649 | 88.40173 | 37862 ft | 483 kts | 6° |
| 2026-04-22 20:10 | 26.97065 | 88.42397 | 37886 ft | 483 kts | 6° |
| 2026-04-22 20:10 | 27.03480 | 88.44623 | 37939 ft | 482 kts | 6° |
| 2026-04-22 20:11 | 27.09895 | 88.46850 | 37953 ft | 482 kts | 6° |
| 2026-04-22 20:11 | 27.16311 | 88.49083 | 37975 ft | 482 kts | 6° |
| 2026-04-22 20:12 | 27.22712 | 88.51318 | 37996 ft | 481 kts | 7° |
| 2026-04-22 20:12 | 27.28016 | 88.53171 | 37976 ft | 479 kts | 7° |
| 2026-04-22 20:13 | 27.35459 | 88.55776 | 37968 ft | 480 kts | 7° |
| 2026-04-22 20:13 | 27.41813 | 88.58000 | 37992 ft | 482 kts | 8° |
| 2026-04-22 20:14 | 27.48222 | 88.60250 | 38102 ft | 482 kts | 8° |
| 2026-04-22 20:14 | 27.54606 | 88.62497 | 38105 ft | 479 kts | 8° |
| 2026-04-22 20:15 | 27.60954 | 88.64724 | 38127 ft | 477 kts | 9° |
| 2026-04-22 20:15 | 27.67289 | 88.66953 | 38111 ft | 477 kts | 8° |
| 2026-04-22 20:16 | 27.73626 | 88.69185 | 38122 ft | 478 kts | 8° |
| 2026-04-22 20:16 | 27.79960 | 88.71424 | 38126 ft | 475 kts | 10° |
| 2026-04-22 20:17 | 27.86230 | 88.73634 | 38113 ft | 474 kts | 10° |
| 2026-04-22 20:17 | 27.92529 | 88.75861 | 38098 ft | 474 kts | 10° |
| 2026-04-22 20:18 | 27.98822 | 88.78082 | 38066 ft | 474 kts | 10° |
| 2026-04-22 20:18 | 28.05118 | 88.80311 | 38073 ft | 474 kts | 9° |
| 2026-04-22 20:19 | 28.11388 | 88.82533 | 38085 ft | 471 kts | 11° |
| 2026-04-22 20:19 | 28.17671 | 88.84783 | 38083 ft | 473 kts | 11° |
| 2026-04-22 20:20 | 28.23926 | 88.87009 | 38072 ft | 471 kts | 11° |
| 2026-04-22 20:20 | 28.30189 | 88.89235 | 38054 ft | 471 kts | 10° |
| 2026-04-22 20:21 | 28.36427 | 88.91450 | 38021 ft | 473 kts | 11° |
| 2026-04-22 20:21 | 28.42705 | 88.93695 | 38001 ft | 473 kts | 10° |
| 2026-04-22 20:22 | 28.48979 | 88.95955 | 38020 ft | 471 kts | 11° |
| 2026-04-22 20:22 | 28.55225 | 88.98189 | 37981 ft | 470 kts | 10° |
| 2026-04-22 20:23 | 28.61487 | 89.00418 | 37989 ft | 472 kts | 10° |
| 2026-04-22 20:23 | 28.67769 | 89.02668 | 37992 ft | 473 kts | 11° |
| 2026-04-22 20:24 | 28.74028 | 89.04920 | 37973 ft | 470 kts | 11° |
| 2026-04-22 20:24 | 28.80226 | 89.07156 | 37935 ft | 470 kts | 11° |
| 2026-04-22 20:25 | 28.86481 | 89.09407 | 37933 ft | 471 kts | 12° |
| 2026-04-22 20:25 | 28.92750 | 89.11663 | 37907 ft | 472 kts | 11° |
| 2026-04-22 20:26 | 28.98996 | 89.13922 | 37932 ft | 470 kts | 12° |
| 2026-04-22 20:26 | 29.05245 | 89.16178 | 37880 ft | 470 kts | 12° |
| 2026-04-22 20:27 | 29.11477 | 89.18435 | 37873 ft | 470 kts | 12° |
| 2026-04-22 20:27 | 29.17711 | 89.20707 | 37853 ft | 470 kts | 12° |
| 2026-04-22 20:28 | 29.23905 | 89.22947 | 37859 ft | 470 kts | 12° |
| 2026-04-22 20:28 | 29.29829 | 89.26225 | 37877 ft | 484 kts | 34° |
| 2026-04-22 20:28 | 29.32211 | 89.28985 | 37858 ft | 492 kts | 49° |
| 2026-04-22 20:29 | 29.33973 | 89.32362 | 37852 ft | 498 kts | 65° |
| 2026-04-22 20:29 | 29.34974 | 89.36166 | 37848 ft | 502 kts | 80° |
| 2026-04-22 20:29 | 29.35148 | 89.40157 | 37881 ft | 502 kts | 93° |
| 2026-04-22 20:30 | 29.34898 | 89.48166 | 37874 ft | 504 kts | 92° |
| 2026-04-22 20:30 | 29.34666 | 89.56187 | 37900 ft | 504 kts | 92° |
| 2026-04-22 20:31 | 29.34476 | 89.62861 | 37905 ft | 504 kts | 92° |
| 2026-04-22 20:31 | 29.34242 | 89.70894 | 37935 ft | 504 kts | 92° |
| 2026-04-22 20:32 | 29.33992 | 89.78933 | 37927 ft | 504 kts | 93° |
| 2026-04-22 20:32 | 29.33744 | 89.86981 | 37934 ft | 505 kts | 92° |
| 2026-04-22 20:33 | 29.33484 | 89.95009 | 37930 ft | 504 kts | 92° |
| 2026-04-22 20:33 | 29.33211 | 90.03054 | 37945 ft | 507 kts | 92° |
| 2026-04-22 20:34 | 29.32941 | 90.11132 | 37882 ft | 507 kts | 93° |
| 2026-04-22 20:34 | 29.32807 | 90.15181 | 36900 ft | 512 kts | 92° |
| 2026-04-22 20:34 | 29.32470 | 90.19249 | 35926 ft | 513 kts | 102° |
| 2026-04-22 20:34 | 29.31613 | 90.23194 | 34996 ft | 507 kts | 109° |
| 2026-04-22 20:35 | 29.30554 | 90.27052 | 34136 ft | 506 kts | 109° |
| 2026-04-22 20:35 | 29.29513 | 90.30834 | 33192 ft | 503 kts | 109° |
| 2026-04-22 20:35 | 29.28466 | 90.34653 | 32034 ft | 503 kts | 108° |
| 2026-04-22 20:35 | 29.27415 | 90.38491 | 30861 ft | 504 kts | 108° |
| 2026-04-22 20:36 | 29.26370 | 90.42317 | 29631 ft | 503 kts | 108° |
| 2026-04-22 20:36 | 29.25326 | 90.46139 | 28237 ft | 504 kts | 107° |
| 2026-04-22 20:36 | 29.24285 | 90.49943 | 27085 ft | 498 kts | 107° |
| 2026-04-22 20:36 | 29.23253 | 90.53709 | 25944 ft | 493 kts | 107° |
| 2026-04-22 20:37 | 29.22229 | 90.57426 | 25197 ft | 482 kts | 107° |
| 2026-04-22 20:37 | 29.21245 | 90.60981 | 25050 ft | 456 kts | 107° |
| 2026-04-22 20:37 | 29.20310 | 90.64353 | 24912 ft | 432 kts | 107° |
| 2026-04-22 20:37 | 29.19421 | 90.67549 | 24795 ft | 411 kts | 106° |
| 2026-04-22 20:38 | 29.18585 | 90.70562 | 24679 ft | 392 kts | 107° |
| 2026-04-22 20:38 | 29.17776 | 90.73477 | 24562 ft | 374 kts | 107° |
| 2026-04-22 20:38 | 29.17000 | 90.76262 | 24252 ft | 363 kts | 106° |
| 2026-04-22 20:38 | 29.16338 | 90.79009 | 23765 ft | 353 kts | 98° |
| 2026-04-22 20:39 | 29.16200 | 90.81769 | 23002 ft | 342 kts | 84° |
| 2026-04-22 20:39 | 29.16595 | 90.84419 | 22145 ft | 334 kts | 70° |
| 2026-04-22 20:39 | 29.17443 | 90.86845 | 21348 ft | 325 kts | 58° |
| 2026-04-22 20:39 | 29.18676 | 90.88970 | 20533 ft | 318 kts | 47° |
| 2026-04-22 20:40 | 29.20227 | 90.90697 | 19922 ft | 306 kts | 36° |
| 2026-04-22 20:40 | 29.21946 | 90.91972 | 19634 ft | 286 kts | 25° |
| 2026-04-22 20:40 | 29.23708 | 90.92829 | 19582 ft | 268 kts | 16° |
| 2026-04-22 20:40 | 29.25483 | 90.93406 | 19245 ft | 268 kts | 13° |
| 2026-04-22 20:41 | 29.27337 | 90.93961 | 18583 ft | 281 kts | 9° |
| 2026-04-22 20:41 | 29.29309 | 90.94100 | 17861 ft | 289 kts | 354° |
| 2026-04-22 20:41 | 29.31273 | 90.93580 | 17318 ft | 289 kts | 338° |
| 2026-04-22 20:41 | 29.32972 | 90.92489 | 17100 ft | 270 kts | 323° |
| 2026-04-22 20:42 | 29.34268 | 90.91063 | 17010 ft | 249 kts | 311° |
| 2026-04-22 20:42 | 29.35340 | 90.89571 | 16907 ft | 239 kts | 311° |
| 2026-04-22 20:42 | 29.36394 | 90.88118 | 16814 ft | 235 kts | 312° |
| 2026-04-22 20:42 | 29.37240 | 90.86520 | 16569 ft | 238 kts | 290° |
| 2026-04-22 20:43 | 29.37423 | 90.84632 | 16233 ft | 241 kts | 270° |
| 2026-04-22 20:43 | 29.37286 | 90.82718 | 15931 ft | 242 kts | 268° |
| 2026-04-22 20:43 | 29.37042 | 90.80813 | 15631 ft | 241 kts | 263° |
| 2026-04-22 20:43 | 29.36698 | 90.78931 | 15335 ft | 240 kts | 260° |
| 2026-04-22 20:44 | 29.36148 | 90.77130 | 15035 ft | 242 kts | 240° |
| 2026-04-22 20:44 | 29.34949 | 90.75761 | 14843 ft | 247 kts | 211° |
| 2026-04-22 20:44 | 29.33323 | 90.75212 | 14396 ft | 243 kts | 181° |
| 2026-04-22 20:44 | 29.31711 | 90.75558 | 14140 ft | 233 kts | 155° |
| 2026-04-22 20:45 | 29.30453 | 90.76637 | 13851 ft | 223 kts | 127° |
| 2026-04-22 20:45 | 29.29751 | 90.78158 | 13634 ft | 212 kts | 100° |
| 2026-04-22 20:45 | 29.29632 | 90.79789 | 13406 ft | 202 kts | 83° |
| 2026-04-22 20:45 | 29.29659 | 90.81351 | 13156 ft | 189 kts | 86° |
| 2026-04-22 20:46 | 29.29701 | 90.84177 | 12508 ft | 167 kts | 84° |
| 2026-04-22 20:46 | 29.29720 | 90.85482 | 12145 ft | 161 kts | 87° |
| 2026-04-22 20:46 | 29.29735 | 90.86757 | 11936 ft | 159 kts | 79° |
| 2026-04-22 20:47 | 29.29766 | 90.88019 | 11736 ft | 158 kts | 82° |
| 2026-04-22 20:47 | 29.29778 | 90.89266 | 11553 ft | 157 kts | 83° |
| 2026-04-22 20:47 | 29.29805 | 90.90458 | 11514 ft | 132 kts | 91° |
| 2026-04-22 20:47 | 29.29812 | 90.91311 | 11513 ft | 82 kts | 89° |
| 2026-04-22 20:48 | 29.29820 | 90.91810 | 11491 ft | 40 kts | 88° |
| 2026-04-22 20:48 | 29.29786 | 90.92028 | 11491 ft | 28 kts | 115° |
| 2026-04-22 20:48 | 29.29702 | 90.92209 | 11485 ft | 16 kts | 137° |
| 2026-04-22 20:48 | 29.29659 | 90.92166 | 11490 ft | 16 kts | 265° |
| 2026-04-22 20:49 | 29.29656 | 90.92093 | 11489 ft | 19 kts | 267° |
| 2026-04-22 20:49 | 29.29651 | 90.91923 | 11478 ft | 24 kts | 269° |
| 2026-04-22 20:49 | 29.29649 | 90.91711 | 11476 ft | 29 kts | 268° |
| 2026-04-22 20:49 | 29.29645 | 90.91458 | 11512 ft | 34 kts | 269° |
| 2026-04-22 20:50 | 29.29640 | 90.91165 | 11512 ft | 39 kts | 270° |
| 2026-04-22 20:50 | 29.29635 | 90.90836 | 11501 ft | 43 kts | 268° |
| 2026-04-22 20:50 | 29.29632 | 90.90474 | 11513 ft | 47 kts | 269° |
| 2026-04-22 20:50 | 29.29624 | 90.90088 | 11514 ft | 46 kts | 269° |
| 2026-04-22 20:51 | 29.29565 | 90.90006 | 11517 ft | 13 kts | 200° |
| 2026-04-22 20:51 | 29.29524 | 90.89929 | 11517 ft | 0 kts | 258° |